sensor_id;sensor_type;location;lat;lon;timestamp;temperature;humidity
6764;DHT22;47432;48.760;9.178;2023-08-08T00:02:09;17.70;99.90
6764;DHT22;47432;48.760;9.178;2023-08-08T00:04:35;14.70;99.90
6764;DHT22;47432;48.760;9.178;2023-08-08T00:07:01;14.60;99.90
6764;DHT22;47432;48.760;9.178;2023-08-08T00:09:26;14.70;99.90
6764;DHT22;47432;48.760;9.178;2023-08-08T00:11:55;14.70;99.90
6764;DHT22;47432;48.760;9.178;2023-08-08T00:14:25;14.70;99.90
6764;DHT22;47432;48.760;9.178;2023-08-08T00:16:51;14.80;99.90
6764;DHT22;47432;48.760;9.178;2023-08-08T00:19:16;14.90;99.90
6764;DHT22;47432;48.760;9.178;2023-08-08T00:21:42;14.90;99.90
6764;DHT22;47432;48.760;9.178;2023-08-08T00:24:10;14.90;99.90
6764;DHT22;47432;48.760;9.178;2023-08-08T00:26:36;15.00;99.90
6764;DHT22;47432;48.760;9.178;2023-08-08T00:29:02;15.10;99.90
6764;DHT22;47432;48.760;9.178;2023-08-08T00:31:27;15.20;99.90
6764;DHT22;47432;48.760;9.178;2023-08-08T00:33:56;15.20;99.90
6764;DHT22;47432;48.760;9.178;2023-08-08T00:36:22;15.20;99.90
6764;DHT22;47432;48.760;9.178;2023-08-08T00:38:47;15.30;99.90
6764;DHT22;47432;48.760;9.178;2023-08-08T00:41:14;15.30;99.90
6764;DHT22;47432;48.760;9.178;2023-08-08T00:43:40;15.30;99.90
6764;DHT22;47432;48.760;9.178;2023-08-08T00:46:06;15.30;99.90
6764;DHT22;47432;48.760;9.178;2023-08-08T00:48:32;15.40;99.90
6764;DHT22;47432;48.760;9.178;2023-08-08T00:50:58;15.40;99.90
6764;DHT22;47432;48.760;9.178;2023-08-08T00:53:25;15.50;99.90
6764;DHT22;47432;48.760;9.178;2023-08-08T00:55:54;15.60;99.90
6764;DHT22;47432;48.760;9.178;2023-08-08T00:58:19;15.60;99.90
6764;DHT22;47432;48.760;9.178;2023-08-08T01:00:45;15.60;99.90
6764;DHT22;47432;48.760;9.178;2023-08-08T01:03:11;15.60;99.90
6764;DHT22;47432;48.760;9.178;2023-08-08T01:08:35;15.60;99.90
6764;DHT22;47432;48.760;9.178;2023-08-08T01:11:05;15.50;99.90
6764;DHT22;47432;48.760;9.178;2023-08-08T01:13:32;15.50;99.90
6764;DHT22;47432;48.760;9.178;2023-08-08T01:15:59;15.50;99.90
6764;DHT22;47432;48.760;9.178;2023-08-08T01:18:25;15.50;99.90
6764;DHT22;47432;48.760;9.178;2023-08-08T01:20:52;15.60;99.90
6764;DHT22;47432;48.760;9.178;2023-08-08T01:26:11;15.70;99.90
6764;DHT22;47432;48.760;9.178;2023-08-08T01:28:37;15.60;99.90
6764;DHT22;47432;48.760;9.178;2023-08-08T01:31:04;15.60;99.90
6764;DHT22;47432;48.760;9.178;2023-08-08T01:33:29;15.60;99.90
6764;DHT22;47432;48.760;9.178;2023-08-08T01:43:24;15.70;99.90
6764;DHT22;47432;48.760;9.178;2023-08-08T01:45:52;15.70;99.90
6764;DHT22;47432;48.760;9.178;2023-08-08T01:48:18;15.70;99.90
6764;DHT22;47432;48.760;9.178;2023-08-08T01:50:47;15.60;99.90
6764;DHT22;47432;48.760;9.178;2023-08-08T01:53:12;15.60;99.90
6764;DHT22;47432;48.760;9.178;2023-08-08T01:55:38;15.70;99.90
6764;DHT22;47432;48.760;9.178;2023-08-08T01:58:04;15.70;99.90
6764;DHT22;47432;48.760;9.178;2023-08-08T02:00:29;15.70;99.90
6764;DHT22;47432;48.760;9.178;2023-08-08T02:05:21;15.70;99.90
6764;DHT22;47432;48.760;9.178;2023-08-08T02:07:47;15.70;99.90
6764;DHT22;47432;48.760;9.178;2023-08-08T02:10:13;15.80;99.90
6764;DHT22;47432;48.760;9.178;2023-08-08T02:12:38;15.80;99.90
6764;DHT22;47432;48.760;9.178;2023-08-08T02:15:05;15.70;99.90
6764;DHT22;47432;48.760;9.178;2023-08-08T02:17:31;15.80;99.90
6764;DHT22;47432;48.760;9.178;2023-08-08T02:19:56;15.80;99.90
6764;DHT22;47432;48.760;9.178;2023-08-08T02:22:22;15.70;99.90
6764;DHT22;47432;48.760;9.178;2023-08-08T02:24:48;15.70;99.90
6764;DHT22;47432;48.760;9.178;2023-08-08T02:27:14;15.60;99.90
6764;DHT22;47432;48.760;9.178;2023-08-08T02:29:39;15.60;99.90
6764;DHT22;47432;48.760;9.178;2023-08-08T02:32:08;15.60;99.90
6764;DHT22;47432;48.760;9.178;2023-08-08T02:34:33;15.40;99.90
6764;DHT22;47432;48.760;9.178;2023-08-08T02:36:59;15.40;99.90
6764;DHT22;47432;48.760;9.178;2023-08-08T02:39:27;15.30;99.90
6764;DHT22;47432;48.760;9.178;2023-08-08T02:41:53;15.10;99.90
6764;DHT22;47432;48.760;9.178;2023-08-08T02:44:18;15.10;99.90
6764;DHT22;47432;48.760;9.178;2023-08-08T02:46:45;15.10;99.90
6764;DHT22;47432;48.760;9.178;2023-08-08T02:49:10;15.00;99.90
6764;DHT22;47432;48.760;9.178;2023-08-08T02:51:36;15.00;99.90
6764;DHT22;47432;48.760;9.178;2023-08-08T02:54:02;14.90;99.90
6764;DHT22;47432;48.760;9.178;2023-08-08T02:56:27;14.90;99.90
6764;DHT22;47432;48.760;9.178;2023-08-08T03:01:19;14.90;99.90
6764;DHT22;47432;48.760;9.178;2023-08-08T03:03:45;14.90;99.90
6764;DHT22;47432;48.760;9.178;2023-08-08T03:06:11;14.80;99.90
6764;DHT22;47432;48.760;9.178;2023-08-08T03:08:37;14.90;99.90
6764;DHT22;47432;48.760;9.178;2023-08-08T03:11:05;14.80;99.90
6764;DHT22;47432;48.760;9.178;2023-08-08T03:13:30;14.80;99.90
6764;DHT22;47432;48.760;9.178;2023-08-08T03:15:56;14.80;99.90
6764;DHT22;47432;48.760;9.178;2023-08-08T03:18:22;14.70;99.90
6764;DHT22;47432;48.760;9.178;2023-08-08T03:20:48;14.70;99.90
6764;DHT22;47432;48.760;9.178;2023-08-08T03:23:17;14.70;99.90
6764;DHT22;47432;48.760;9.178;2023-08-08T03:25:43;14.70;99.90
6764;DHT22;47432;48.760;9.178;2023-08-08T03:30:38;14.60;99.90
6764;DHT22;47432;48.760;9.178;2023-08-08T03:33:05;14.70;99.90
6764;DHT22;47432;48.760;9.178;2023-08-08T03:35:30;14.70;99.90
6764;DHT22;47432;48.760;9.178;2023-08-08T03:37:56;14.70;99.90
6764;DHT22;47432;48.760;9.178;2023-08-08T03:40:22;14.60;99.90
6764;DHT22;47432;48.760;9.178;2023-08-08T03:42:47;14.80;99.90
6764;DHT22;47432;48.760;9.178;2023-08-08T03:45:13;14.90;99.90
6764;DHT22;47432;48.760;9.178;2023-08-08T03:47:39;14.90;99.90
6764;DHT22;47432;48.760;9.178;2023-08-08T03:50:06;15.00;99.90
6764;DHT22;47432;48.760;9.178;2023-08-08T03:52:35;15.10;99.90
6764;DHT22;47432;48.760;9.178;2023-08-08T03:55:03;15.10;99.90
6764;DHT22;47432;48.760;9.178;2023-08-08T03:57:30;15.10;99.90
6764;DHT22;47432;48.760;9.178;2023-08-08T03:59:56;15.20;99.90
6764;DHT22;47432;48.760;9.178;2023-08-08T04:02:22;15.20;99.90
6764;DHT22;47432;48.760;9.178;2023-08-08T04:04:47;15.30;99.90
6764;DHT22;47432;48.760;9.178;2023-08-08T04:07:13;15.30;99.90
6764;DHT22;47432;48.760;9.178;2023-08-08T04:09:39;15.30;99.90
6764;DHT22;47432;48.760;9.178;2023-08-08T04:12:05;15.30;99.90
6764;DHT22;47432;48.760;9.178;2023-08-08T04:14:31;15.40;99.90
6764;DHT22;47432;48.760;9.178;2023-08-08T04:16:56;15.30;99.90
6764;DHT22;47432;48.760;9.178;2023-08-08T04:19:22;15.30;99.90
6764;DHT22;47432;48.760;9.178;2023-08-08T04:21:48;15.30;99.90
6764;DHT22;47432;48.760;9.178;2023-08-08T04:24:14;15.30;99.90
6764;DHT22;47432;48.760;9.178;2023-08-08T04:26:40;15.40;99.90
6764;DHT22;47432;48.760;9.178;2023-08-08T04:29:06;15.40;99.90
6764;DHT22;47432;48.760;9.178;2023-08-08T04:31:32;15.50;99.90
6764;DHT22;47432;48.760;9.178;2023-08-08T04:33:57;15.50;99.90
6764;DHT22;47432;48.760;9.178;2023-08-08T04:36:29;15.60;99.90
6764;DHT22;47432;48.760;9.178;2023-08-08T04:38:55;15.60;99.90
6764;DHT22;47432;48.760;9.178;2023-08-08T04:41:23;15.60;99.90
6764;DHT22;47432;48.760;9.178;2023-08-08T04:43:49;15.70;99.90
6764;DHT22;47432;48.760;9.178;2023-08-08T04:46:15;15.70;99.90
6764;DHT22;47432;48.760;9.178;2023-08-08T04:48:40;15.70;99.90
6764;DHT22;47432;48.760;9.178;2023-08-08T04:51:06;15.70;99.90
6764;DHT22;47432;48.760;9.178;2023-08-08T04:53:33;15.70;99.90
6764;DHT22;47432;48.760;9.178;2023-08-08T04:55:59;15.70;99.90
6764;DHT22;47432;48.760;9.178;2023-08-08T04:58:24;15.70;99.90
6764;DHT22;47432;48.760;9.178;2023-08-08T05:03:17;15.70;99.90
6764;DHT22;47432;48.760;9.178;2023-08-08T05:05:43;15.70;99.90
6764;DHT22;47432;48.760;9.178;2023-08-08T05:08:11;15.70;99.90
6764;DHT22;47432;48.760;9.178;2023-08-08T05:10:37;15.70;99.90
6764;DHT22;47432;48.760;9.178;2023-08-08T05:13:03;15.60;99.90
6764;DHT22;47432;48.760;9.178;2023-08-08T05:15:28;15.60;99.90
6764;DHT22;47432;48.760;9.178;2023-08-08T05:17:54;15.60;99.90
6764;DHT22;47432;48.760;9.178;2023-08-08T05:20:21;15.60;99.90
6764;DHT22;47432;48.760;9.178;2023-08-08T05:22:47;15.60;99.90
6764;DHT22;47432;48.760;9.178;2023-08-08T05:25:13;15.50;99.90
6764;DHT22;47432;48.760;9.178;2023-08-08T05:27:39;15.50;99.90
6764;DHT22;47432;48.760;9.178;2023-08-08T05:30:07;15.50;99.90
6764;DHT22;47432;48.760;9.178;2023-08-08T05:32:33;15.60;99.90
6764;DHT22;47432;48.760;9.178;2023-08-08T05:34:59;15.60;99.90
6764;DHT22;47432;48.760;9.178;2023-08-08T05:37:26;15.60;99.90
6764;DHT22;47432;48.760;9.178;2023-08-08T05:39:52;15.60;99.90
6764;DHT22;47432;48.760;9.178;2023-08-08T05:42:19;15.60;99.90
6764;DHT22;47432;48.760;9.178;2023-08-08T05:44:47;15.60;99.90
6764;DHT22;47432;48.760;9.178;2023-08-08T05:47:12;15.60;99.90
6764;DHT22;47432;48.760;9.178;2023-08-08T05:49:39;15.50;99.90
6764;DHT22;47432;48.760;9.178;2023-08-08T05:52:08;15.50;99.90
6764;DHT22;47432;48.760;9.178;2023-08-08T05:54:34;15.50;99.90
6764;DHT22;47432;48.760;9.178;2023-08-08T05:57:01;15.50;99.90
6764;DHT22;47432;48.760;9.178;2023-08-08T05:59:27;15.60;99.90
6764;DHT22;47432;48.760;9.178;2023-08-08T06:04:19;15.50;99.90
6764;DHT22;47432;48.760;9.178;2023-08-08T06:06:45;15.60;99.90
6764;DHT22;47432;48.760;9.178;2023-08-08T06:09:14;15.70;99.90
6764;DHT22;47432;48.760;9.178;2023-08-08T06:11:40;15.70;99.90
6764;DHT22;47432;48.760;9.178;2023-08-08T06:14:06;15.90;99.90
6764;DHT22;47432;48.760;9.178;2023-08-08T06:16:32;15.90;99.90
6764;DHT22;47432;48.760;9.178;2023-08-08T06:18:57;16.00;99.90
6764;DHT22;47432;48.760;9.178;2023-08-08T06:21:23;16.10;99.90
6764;DHT22;47432;48.760;9.178;2023-08-08T06:23:49;16.10;99.90
6764;DHT22;47432;48.760;9.178;2023-08-08T06:26:15;16.20;99.90
6764;DHT22;47432;48.760;9.178;2023-08-08T06:28:41;16.30;99.90
6764;DHT22;47432;48.760;9.178;2023-08-08T06:33:33;16.40;99.90
6764;DHT22;47432;48.760;9.178;2023-08-08T06:36:02;16.40;99.90
6764;DHT22;47432;48.760;9.178;2023-08-08T06:38:28;16.50;99.90
6764;DHT22;47432;48.760;9.178;2023-08-08T06:40:54;16.50;99.90
6764;DHT22;47432;48.760;9.178;2023-08-08T06:43:21;16.40;99.90
6764;DHT22;47432;48.760;9.178;2023-08-08T06:45:47;16.40;99.90
6764;DHT22;47432;48.760;9.178;2023-08-08T06:48:16;16.60;99.90
6764;DHT22;47432;48.760;9.178;2023-08-08T06:50:41;16.60;99.90
6764;DHT22;47432;48.760;9.178;2023-08-08T06:53:10;16.60;99.90
6764;DHT22;47432;48.760;9.178;2023-08-08T06:55:36;16.60;99.90
6764;DHT22;47432;48.760;9.178;2023-08-08T06:58:01;16.70;99.90
6764;DHT22;47432;48.760;9.178;2023-08-08T07:00:27;16.70;99.90
6764;DHT22;47432;48.760;9.178;2023-08-08T07:02:53;16.80;99.90
6764;DHT22;47432;48.760;9.178;2023-08-08T07:05:19;17.10;99.90
6764;DHT22;47432;48.760;9.178;2023-08-08T07:07:51;17.10;99.90
6764;DHT22;47432;48.760;9.178;2023-08-08T07:10:18;17.30;99.90
6764;DHT22;47432;48.760;9.178;2023-08-08T07:12:44;17.50;99.90
6764;DHT22;47432;48.760;9.178;2023-08-08T07:15:10;17.60;99.90
6764;DHT22;47432;48.760;9.178;2023-08-08T07:17:36;17.70;99.90
6764;DHT22;47432;48.760;9.178;2023-08-08T07:20:02;17.60;99.90
6764;DHT22;47432;48.760;9.178;2023-08-08T07:22:28;17.60;99.90
6764;DHT22;47432;48.760;9.178;2023-08-08T07:24:54;17.60;99.90
6764;DHT22;47432;48.760;9.178;2023-08-08T07:27:19;17.70;99.90
6764;DHT22;47432;48.760;9.178;2023-08-08T07:29:45;17.80;99.90
6764;DHT22;47432;48.760;9.178;2023-08-08T07:32:11;18.00;99.90
6764;DHT22;47432;48.760;9.178;2023-08-08T07:34:37;18.10;99.90
6764;DHT22;47432;48.760;9.178;2023-08-08T07:37:02;18.20;99.90
6764;DHT22;47432;48.760;9.178;2023-08-08T07:39:28;18.30;99.90
6764;DHT22;47432;48.760;9.178;2023-08-08T07:41:54;18.30;99.90
6764;DHT22;47432;48.760;9.178;2023-08-08T07:44:20;18.10;99.90
6764;DHT22;47432;48.760;9.178;2023-08-08T07:46:49;18.10;99.90
6764;DHT22;47432;48.760;9.178;2023-08-08T07:49:15;18.10;99.90
6764;DHT22;47432;48.760;9.178;2023-08-08T07:51:40;18.30;99.90
6764;DHT22;47432;48.760;9.178;2023-08-08T07:54:06;18.50;99.90
6764;DHT22;47432;48.760;9.178;2023-08-08T07:56:34;18.70;99.90
6764;DHT22;47432;48.760;9.178;2023-08-08T07:59:00;18.80;99.90
6764;DHT22;47432;48.760;9.178;2023-08-08T08:01:27;19.00;99.90
6764;DHT22;47432;48.760;9.178;2023-08-08T08:03:53;19.20;99.90
6764;DHT22;47432;48.760;9.178;2023-08-08T08:06:22;19.30;99.90
6764;DHT22;47432;48.760;9.178;2023-08-08T08:08:47;19.30;99.90
6764;DHT22;47432;48.760;9.178;2023-08-08T08:11:13;19.40;99.90
6764;DHT22;47432;48.760;9.178;2023-08-08T08:13:41;19.40;99.90
6764;DHT22;47432;48.760;9.178;2023-08-08T08:16:06;19.40;99.90
6764;DHT22;47432;48.760;9.178;2023-08-08T08:21:01;19.60;99.90
6764;DHT22;47432;48.760;9.178;2023-08-08T08:23:30;19.30;99.90
6764;DHT22;47432;48.760;9.178;2023-08-08T08:25:57;19.40;99.90
6764;DHT22;47432;48.760;9.178;2023-08-08T08:28:23;19.30;99.90
6764;DHT22;47432;48.760;9.178;2023-08-08T08:30:49;19.40;99.90
6764;DHT22;47432;48.760;9.178;2023-08-08T08:33:15;19.40;99.90
6764;DHT22;47432;48.760;9.178;2023-08-08T08:35:41;19.40;99.90
6764;DHT22;47432;48.760;9.178;2023-08-08T08:38:07;19.30;99.90
6764;DHT22;47432;48.760;9.178;2023-08-08T08:40:38;19.40;99.90
6764;DHT22;47432;48.760;9.178;2023-08-08T08:43:07;19.30;99.90
6764;DHT22;47432;48.760;9.178;2023-08-08T08:45:37;19.30;99.90
6764;DHT22;47432;48.760;9.178;2023-08-08T08:48:09;19.60;99.90
6764;DHT22;47432;48.760;9.178;2023-08-08T08:50:38;19.70;99.90
6764;DHT22;47432;48.760;9.178;2023-08-08T08:53:05;19.80;99.90
6764;DHT22;47432;48.760;9.178;2023-08-08T08:55:32;20.10;99.90
6764;DHT22;47432;48.760;9.178;2023-08-08T08:57:58;20.20;99.90
6764;DHT22;47432;48.760;9.178;2023-08-08T09:00:24;20.20;99.90
6764;DHT22;47432;48.760;9.178;2023-08-08T09:02:52;20.30;99.90
6764;DHT22;47432;48.760;9.178;2023-08-08T09:05:20;20.10;99.90
6764;DHT22;47432;48.760;9.178;2023-08-08T09:07:48;20.20;99.90
6764;DHT22;47432;48.760;9.178;2023-08-08T09:10:15;20.10;99.90
6764;DHT22;47432;48.760;9.178;2023-08-08T09:12:41;20.30;99.90
6764;DHT22;47432;48.760;9.178;2023-08-08T09:15:08;20.40;99.90
6764;DHT22;47432;48.760;9.178;2023-08-08T09:17:35;20.20;99.90
6764;DHT22;47432;48.760;9.178;2023-08-08T09:20:01;20.30;99.90
6764;DHT22;47432;48.760;9.178;2023-08-08T09:22:27;20.30;99.90
6764;DHT22;47432;48.760;9.178;2023-08-08T09:24:54;20.30;99.90
6764;DHT22;47432;48.760;9.178;2023-08-08T09:27:20;20.20;99.90
6764;DHT22;47432;48.760;9.178;2023-08-08T09:29:46;20.40;99.90
6764;DHT22;47432;48.760;9.178;2023-08-08T09:32:12;20.50;99.90
6764;DHT22;47432;48.760;9.178;2023-08-08T09:34:41;20.70;99.40
6764;DHT22;47432;48.760;9.178;2023-08-08T09:37:08;20.70;99.70
6764;DHT22;47432;48.760;9.178;2023-08-08T09:39:36;20.60;98.80
6764;DHT22;47432;48.760;9.178;2023-08-08T09:42:02;20.80;99.00
6764;DHT22;47432;48.760;9.178;2023-08-08T09:44:29;21.00;98.60
6764;DHT22;47432;48.760;9.178;2023-08-08T09:46:57;21.30;98.80
6764;DHT22;47432;48.760;9.178;2023-08-08T09:49:23;21.00;98.50
6764;DHT22;47432;48.760;9.178;2023-08-08T09:51:49;20.80;97.90
6764;DHT22;47432;48.760;9.178;2023-08-08T09:54:16;20.80;98.10
6764;DHT22;47432;48.760;9.178;2023-08-08T09:56:43;21.00;97.50
6764;DHT22;47432;48.760;9.178;2023-08-08T09:59:09;21.40;98.10
6764;DHT22;47432;48.760;9.178;2023-08-08T10:01:37;21.40;98.30
6764;DHT22;47432;48.760;9.178;2023-08-08T10:04:06;21.60;97.50
6764;DHT22;47432;48.760;9.178;2023-08-08T10:06:32;21.60;97.40
6764;DHT22;47432;48.760;9.178;2023-08-08T10:08:59;21.70;97.10
6764;DHT22;47432;48.760;9.178;2023-08-08T10:11:27;21.70;97.30
6764;DHT22;47432;48.760;9.178;2023-08-08T10:13:54;21.90;97.00
6764;DHT22;47432;48.760;9.178;2023-08-08T10:16:22;22.10;97.70
6764;DHT22;47432;48.760;9.178;2023-08-08T10:18:56;21.90;95.80
6764;DHT22;47432;48.760;9.178;2023-08-08T10:21:24;21.50;96.00
6764;DHT22;47432;48.760;9.178;2023-08-08T10:24:10;21.30;95.50
6764;DHT22;47432;48.760;9.178;2023-08-08T10:26:58;21.20;95.20
6764;DHT22;47432;48.760;9.178;2023-08-08T10:29:28;21.20;95.30
6764;DHT22;47432;48.760;9.178;2023-08-08T10:32:04;21.00;96.80
6764;DHT22;47432;48.760;9.178;2023-08-08T10:34:46;20.90;95.10
6764;DHT22;47432;48.760;9.178;2023-08-08T10:37:18;21.00;95.30
6764;DHT22;47432;48.760;9.178;2023-08-08T10:39:54;21.20;95.60
6764;DHT22;47432;48.760;9.178;2023-08-08T10:42:27;21.40;94.50
6764;DHT22;47432;48.760;9.178;2023-08-08T10:45:02;21.40;94.70
6764;DHT22;47432;48.760;9.178;2023-08-08T10:47:34;21.40;95.40
6764;DHT22;47432;48.760;9.178;2023-08-08T10:50:09;21.50;94.50
6764;DHT22;47432;48.760;9.178;2023-08-08T10:52:56;21.70;93.40
6764;DHT22;47432;48.760;9.178;2023-08-08T10:55:30;21.40;93.60
6764;DHT22;47432;48.760;9.178;2023-08-08T10:58:08;21.90;92.40
6764;DHT22;47432;48.760;9.178;2023-08-08T11:00:37;21.90;92.90
6764;DHT22;47432;48.760;9.178;2023-08-08T11:03:10;21.60;92.80
6764;DHT22;47432;48.760;9.178;2023-08-08T11:05:37;21.70;91.30
6764;DHT22;47432;48.760;9.178;2023-08-08T11:08:05;21.70;91.40
6764;DHT22;47432;48.760;9.178;2023-08-08T11:10:39;21.70;91.10
6764;DHT22;47432;48.760;9.178;2023-08-08T11:13:08;21.50;91.50
6764;DHT22;47432;48.760;9.178;2023-08-08T11:15:35;21.50;91.20
6764;DHT22;47432;48.760;9.178;2023-08-08T11:18:03;21.50;91.40
6764;DHT22;47432;48.760;9.178;2023-08-08T11:20:30;21.50;91.40
6764;DHT22;47432;48.760;9.178;2023-08-08T11:22:58;21.60;91.80
6764;DHT22;47432;48.760;9.178;2023-08-08T11:25:29;22.00;91.90
6764;DHT22;47432;48.760;9.178;2023-08-08T11:27:56;22.50;87.80
6764;DHT22;47432;48.760;9.178;2023-08-08T11:30:29;22.50;87.90
6764;DHT22;47432;48.760;9.178;2023-08-08T11:32:58;22.70;87.10
6764;DHT22;47432;48.760;9.178;2023-08-08T11:35:29;22.80;84.80
6764;DHT22;47432;48.760;9.178;2023-08-08T11:37:57;22.50;85.80
6764;DHT22;47432;48.760;9.178;2023-08-08T11:40:26;22.40;86.60
6764;DHT22;47432;48.760;9.178;2023-08-08T11:42:54;22.80;87.60
6764;DHT22;47432;48.760;9.178;2023-08-08T11:45:20;23.00;87.60
6764;DHT22;47432;48.760;9.178;2023-08-08T11:47:51;23.20;90.00
6764;DHT22;47432;48.760;9.178;2023-08-08T11:50:19;23.60;88.70
6764;DHT22;47432;48.760;9.178;2023-08-08T11:52:50;23.70;87.90
6764;DHT22;47432;48.760;9.178;2023-08-08T11:55:16;23.50;87.10
6764;DHT22;47432;48.760;9.178;2023-08-08T11:57:47;22.90;89.40
6764;DHT22;47432;48.760;9.178;2023-08-08T12:00:14;22.70;88.90
6764;DHT22;47432;48.760;9.178;2023-08-08T12:02:41;22.80;85.60
6764;DHT22;47432;48.760;9.178;2023-08-08T12:05:12;22.60;86.00
6764;DHT22;47432;48.760;9.178;2023-08-08T12:07:42;22.50;86.90
6764;DHT22;47432;48.760;9.178;2023-08-08T12:10:15;22.30;84.70
6764;DHT22;47432;48.760;9.178;2023-08-08T12:12:43;22.20;86.50
6764;DHT22;47432;48.760;9.178;2023-08-08T12:15:10;22.40;86.90
6764;DHT22;47432;48.760;9.178;2023-08-08T12:17:36;22.60;87.30
6764;DHT22;47432;48.760;9.178;2023-08-08T12:20:04;22.80;87.40
6764;DHT22;47432;48.760;9.178;2023-08-08T12:22:31;23.10;88.50
6764;DHT22;47432;48.760;9.178;2023-08-08T12:24:57;23.50;86.60
6764;DHT22;47432;48.760;9.178;2023-08-08T12:27:24;23.70;85.40
6764;DHT22;47432;48.760;9.178;2023-08-08T12:29:50;23.90;85.90
6764;DHT22;47432;48.760;9.178;2023-08-08T12:32:20;23.70;85.20
6764;DHT22;47432;48.760;9.178;2023-08-08T12:34:53;23.70;81.80
6764;DHT22;47432;48.760;9.178;2023-08-08T12:37:18;23.40;82.90
6764;DHT22;47432;48.760;9.178;2023-08-08T12:39:44;23.40;84.20
6764;DHT22;47432;48.760;9.178;2023-08-08T12:42:10;23.30;85.40
6764;DHT22;47432;48.760;9.178;2023-08-08T12:44:36;23.00;84.50
6764;DHT22;47432;48.760;9.178;2023-08-08T12:47:02;22.80;85.60
6764;DHT22;47432;48.760;9.178;2023-08-08T12:49:28;22.70;85.40
6764;DHT22;47432;48.760;9.178;2023-08-08T12:51:54;22.70;87.50
6764;DHT22;47432;48.760;9.178;2023-08-08T12:54:21;22.70;87.40
6764;DHT22;47432;48.760;9.178;2023-08-08T12:56:50;22.70;86.30
6764;DHT22;47432;48.760;9.178;2023-08-08T12:59:15;22.70;85.20
6764;DHT22;47432;48.760;9.178;2023-08-08T13:01:41;23.00;86.20
6764;DHT22;47432;48.760;9.178;2023-08-08T13:04:07;23.20;86.10
6764;DHT22;47432;48.760;9.178;2023-08-08T13:06:32;23.20;85.70
6764;DHT22;47432;48.760;9.178;2023-08-08T13:09:01;23.20;85.30
6764;DHT22;47432;48.760;9.178;2023-08-08T13:11:27;23.50;86.50
6764;DHT22;47432;48.760;9.178;2023-08-08T13:13:53;23.70;87.30
6764;DHT22;47432;48.760;9.178;2023-08-08T13:16:21;23.50;84.90
6764;DHT22;47432;48.760;9.178;2023-08-08T13:21:16;22.90;85.70
6764;DHT22;47432;48.760;9.178;2023-08-08T13:23:41;22.90;86.20
6764;DHT22;47432;48.760;9.178;2023-08-08T13:26:07;22.50;87.50
6764;DHT22;47432;48.760;9.178;2023-08-08T13:28:33;22.40;87.90
6764;DHT22;47432;48.760;9.178;2023-08-08T13:31:04;22.40;89.70
6764;DHT22;47432;48.760;9.178;2023-08-08T13:33:32;22.70;89.90
6764;DHT22;47432;48.760;9.178;2023-08-08T13:35:58;22.70;90.10
6764;DHT22;47432;48.760;9.178;2023-08-08T13:38:27;23.20;90.30
6764;DHT22;47432;48.760;9.178;2023-08-08T13:40:53;24.30;86.80
6764;DHT22;47432;48.760;9.178;2023-08-08T13:43:21;24.90;84.70
6764;DHT22;47432;48.760;9.178;2023-08-08T13:45:46;24.90;85.30
6764;DHT22;47432;48.760;9.178;2023-08-08T13:48:12;24.60;85.90
6764;DHT22;47432;48.760;9.178;2023-08-08T13:50:38;24.60;86.70
6764;DHT22;47432;48.760;9.178;2023-08-08T13:53:03;25.70;83.90
6764;DHT22;47432;48.760;9.178;2023-08-08T13:55:29;26.20;81.60
6764;DHT22;47432;48.760;9.178;2023-08-08T13:57:55;26.50;80.10
6764;DHT22;47432;48.760;9.178;2023-08-08T14:00:21;26.50;80.70
6764;DHT22;47432;48.760;9.178;2023-08-08T14:02:47;26.90;78.60
6764;DHT22;47432;48.760;9.178;2023-08-08T14:05:13;26.80;79.40
6764;DHT22;47432;48.760;9.178;2023-08-08T14:07:40;25.40;77.00
6764;DHT22;47432;48.760;9.178;2023-08-08T14:10:06;25.10;79.30
6764;DHT22;47432;48.760;9.178;2023-08-08T14:12:34;24.10;79.60
6764;DHT22;47432;48.760;9.178;2023-08-08T14:15:00;24.20;80.80
6764;DHT22;47432;48.760;9.178;2023-08-08T14:17:26;24.40;81.00
6764;DHT22;47432;48.760;9.178;2023-08-08T14:19:54;24.00;80.40
6764;DHT22;47432;48.760;9.178;2023-08-08T14:22:22;23.70;81.60
6764;DHT22;47432;48.760;9.178;2023-08-08T14:24:51;23.70;82.30
6764;DHT22;47432;48.760;9.178;2023-08-08T14:29:43;23.30;82.80
6764;DHT22;47432;48.760;9.178;2023-08-08T14:32:11;23.10;83.80
6764;DHT22;47432;48.760;9.178;2023-08-08T14:34:36;22.50;85.90
6764;DHT22;47432;48.760;9.178;2023-08-08T14:37:03;22.50;86.20
6764;DHT22;47432;48.760;9.178;2023-08-08T14:39:29;22.30;87.40
6764;DHT22;47432;48.760;9.178;2023-08-08T14:41:56;22.30;87.90
6764;DHT22;47432;48.760;9.178;2023-08-08T14:44:22;22.10;88.20
6764;DHT22;47432;48.760;9.178;2023-08-08T14:46:48;22.30;87.50
6764;DHT22;47432;48.760;9.178;2023-08-08T14:49:13;22.40;88.60
6764;DHT22;47432;48.760;9.178;2023-08-08T14:51:39;22.40;89.30
6764;DHT22;47432;48.760;9.178;2023-08-08T14:56:31;22.40;89.80
6764;DHT22;47432;48.760;9.178;2023-08-08T14:58:57;22.70;90.30
6764;DHT22;47432;48.760;9.178;2023-08-08T15:01:23;23.00;89.70
6764;DHT22;47432;48.760;9.178;2023-08-08T15:03:49;22.30;88.60
6764;DHT22;47432;48.760;9.178;2023-08-08T15:06:15;22.20;89.40
6764;DHT22;47432;48.760;9.178;2023-08-08T15:08:42;22.40;90.30
6764;DHT22;47432;48.760;9.178;2023-08-08T15:11:08;22.40;89.00
6764;DHT22;47432;48.760;9.178;2023-08-08T15:13:34;22.40;89.30
6764;DHT22;47432;48.760;9.178;2023-08-08T15:16:02;22.10;89.20
6764;DHT22;47432;48.760;9.178;2023-08-08T15:18:31;21.70;90.30
6764;DHT22;47432;48.760;9.178;2023-08-08T15:20:57;21.70;90.50
6764;DHT22;47432;48.760;9.178;2023-08-08T15:23:23;22.10;90.40
6764;DHT22;47432;48.760;9.178;2023-08-08T15:25:48;22.20;90.80
6764;DHT22;47432;48.760;9.178;2023-08-08T15:28:14;22.90;89.90
6764;DHT22;47432;48.760;9.178;2023-08-08T15:30:40;23.70;90.50
6764;DHT22;47432;48.760;9.178;2023-08-08T15:33:06;25.00;87.30
6764;DHT22;47432;48.760;9.178;2023-08-08T15:35:32;26.20;82.20
6764;DHT22;47432;48.760;9.178;2023-08-08T15:37:58;26.50;82.90
6764;DHT22;47432;48.760;9.178;2023-08-08T15:40:25;26.50;82.30
6764;DHT22;47432;48.760;9.178;2023-08-08T15:42:53;25.90;82.20
6764;DHT22;47432;48.760;9.178;2023-08-08T15:45:19;23.50;85.40
6764;DHT22;47432;48.760;9.178;2023-08-08T15:47:45;23.50;85.90
6764;DHT22;47432;48.760;9.178;2023-08-08T15:50:11;23.20;87.90
6764;DHT22;47432;48.760;9.178;2023-08-08T15:52:37;22.80;88.50
6764;DHT22;47432;48.760;9.178;2023-08-08T15:55:04;22.00;90.00
6764;DHT22;47432;48.760;9.178;2023-08-08T15:57:31;19.50;88.30
6764;DHT22;47432;48.760;9.178;2023-08-08T15:59:59;21.90;90.70
6764;DHT22;47432;48.760;9.178;2023-08-08T16:02:25;21.90;91.00
6764;DHT22;47432;48.760;9.178;2023-08-08T16:04:50;22.10;90.90
6764;DHT22;47432;48.760;9.178;2023-08-08T16:07:17;22.10;90.90
6764;DHT22;47432;48.760;9.178;2023-08-08T16:09:45;22.20;90.90
6764;DHT22;47432;48.760;9.178;2023-08-08T16:12:11;22.20;91.20
6764;DHT22;47432;48.760;9.178;2023-08-08T16:14:38;22.50;91.00
6764;DHT22;47432;48.760;9.178;2023-08-08T16:17:04;22.50;91.20
6764;DHT22;47432;48.760;9.178;2023-08-08T16:19:29;22.90;90.40
6764;DHT22;47432;48.760;9.178;2023-08-08T16:21:55;22.80;90.60